createdAt,value
2019-01-03T00:00:04.726Z,95
2019-01-03T00:01:06.848Z,95
2019-01-03T00:02:09.840Z,96
2019-01-03T00:03:11.961Z,97
2019-01-03T00:04:14.105Z,97
2019-01-03T00:05:16.207Z,97
2019-01-03T00:06:18.379Z,97
2019-01-03T00:07:20.518Z,97
2019-01-03T00:08:22.622Z,97
2019-01-03T00:09:24.847Z,97
2019-01-03T00:10:27.428Z,97
2019-01-03T00:11:29.571Z,97
2019-01-03T00:12:31.712Z,97
2019-01-03T00:13:33.833Z,97
2019-01-03T00:14:35.956Z,97
2019-01-03T00:15:38.092Z,97
2019-01-03T00:16:40.252Z,98
2019-01-03T00:17:42.666Z,98
2019-01-03T00:18:44.818Z,98
2019-01-03T00:19:46.967Z,97
2019-01-03T00:20:49.148Z,98
2019-01-03T00:21:51.581Z,98
2019-01-03T00:22:53.720Z,98
2019-01-03T00:23:55.880Z,98
2019-01-03T00:24:58.000Z,98
2019-01-03T00:26:00.134Z,98
2019-01-03T00:27:02.263Z,97
2019-01-03T00:28:04.588Z,97
2019-01-03T00:29:06.859Z,97
2019-01-03T00:30:09.026Z,97
2019-01-03T00:31:11.131Z,97
2019-01-03T00:32:13.255Z,97
2019-01-03T00:33:15.635Z,96
2019-01-03T00:34:17.766Z,96
2019-01-03T00:35:19.931Z,96
2019-01-03T00:36:22.051Z,96
2019-01-03T00:37:24.198Z,96
2019-01-03T00:38:26.323Z,96
2019-01-03T00:39:28.851Z,97
2019-01-03T00:40:30.963Z,97
2019-01-03T00:41:33.090Z,96
2019-01-03T00:42:35.197Z,96
2019-01-03T00:43:37.317Z,96
2019-01-03T00:44:39.446Z,96
2019-01-03T00:45:41.862Z,96
2019-01-03T00:46:44.009Z,96
2019-01-03T00:47:46.140Z,97
2019-01-03T00:48:48.277Z,96
2019-01-03T00:49:50.417Z,96
2019-01-03T00:50:52.551Z,96
2019-01-03T00:51:54.977Z,96
2019-01-03T00:52:57.383Z,96
2019-01-03T00:53:59.782Z,96
2019-01-03T00:55:01.940Z,97
2019-01-03T00:56:04.357Z,97
2019-01-03T00:57:06.488Z,97
2019-01-03T00:58:08.620Z,97
2019-01-03T00:59:10.744Z,97
2019-01-03T01:00:12.874Z,97
2019-01-03T01:01:14.995Z,97
2019-01-03T01:02:17.127Z,97
2019-01-03T01:03:19.260Z,97
2019-01-03T01:04:21.377Z,98
2019-01-03T01:05:23.482Z,98
2019-01-03T01:06:25.894Z,98
2019-01-03T01:07:28.024Z,98
2019-01-03T01:08:30.157Z,98
2019-01-03T01:09:32.672Z,98
2019-01-03T01:10:34.791Z,98
2019-01-03T01:11:36.922Z,98
2019-01-03T01:12:39.053Z,98
2019-01-03T01:13:41.185Z,98
2019-01-03T01:14:43.321Z,99
2019-01-03T01:15:45.825Z,99
2019-01-03T01:16:48.012Z,99
2019-01-03T01:17:50.133Z,99
2019-01-03T01:18:52.267Z,99
2019-01-03T01:19:54.394Z,99
2019-01-03T01:20:56.573Z,99
2019-01-03T01:21:59.025Z,99
2019-01-03T01:23:01.145Z,99
2019-01-03T01:24:03.593Z,99
2019-01-03T01:25:05.720Z,99
2019-01-03T01:26:07.858Z,100
2019-01-03T01:27:09.965Z,100
2019-01-03T01:28:12.401Z,100
2019-01-03T01:29:14.534Z,100
2019-01-03T01:30:16.935Z,100
2019-01-03T01:31:19.044Z,100
2019-01-03T01:32:21.455Z,100
2019-01-03T01:33:23.559Z,100
2019-01-03T01:34:25.670Z,100
2019-01-03T01:35:27.821Z,100
2019-01-03T01:36:29.961Z,100
2019-01-03T01:37:32.097Z,100
2019-01-03T01:38:34.235Z,100
2019-01-03T01:39:36.375Z,100
2019-01-03T01:40:38.506Z,100
2019-01-03T01:41:40.645Z,100
2019-01-03T01:42:42.768Z,100
2019-01-03T01:43:45.290Z,100
2019-01-03T01:44:47.392Z,100
2019-01-03T01:45:49.505Z,100
2019-01-03T01:46:51.649Z,100
2019-01-03T01:47:54.199Z,100
2019-01-03T01:48:56.333Z,100
2019-01-03T01:49:58.484Z,100
2019-01-03T01:51:00.622Z,100
2019-01-03T01:52:03.140Z,100
2019-01-03T01:53:05.263Z,100
2019-01-03T01:54:07.382Z,100
2019-01-03T01:55:09.502Z,100
2019-01-03T01:56:11.650Z,100
2019-01-03T01:57:13.824Z,100
2019-01-03T01:58:15.948Z,100
2019-01-03T01:59:18.066Z,100
2019-01-03T02:00:20.466Z,100
2019-01-03T02:01:22.627Z,100
2019-01-03T02:02:25.074Z,100
2019-01-03T02:03:27.195Z,100
2019-01-03T02:04:29.324Z,100
2019-01-03T02:05:31.459Z,100
2019-01-03T02:06:33.619Z,100
2019-01-03T02:07:35.767Z,100
2019-01-03T02:08:37.878Z,100
2019-01-03T02:09:40.006Z,100
2019-01-03T02:10:42.130Z,100
2019-01-03T02:11:44.257Z,100
2019-01-03T02:12:46.401Z,100
2019-01-03T02:13:48.516Z,100
2019-01-03T02:14:50.663Z,100
2019-01-03T02:15:52.818Z,100
2019-01-03T02:16:54.934Z,100
2019-01-03T02:17:57.044Z,100
2019-01-03T02:18:59.186Z,100
2019-01-03T02:20:01.591Z,100
2019-01-03T02:21:04.020Z,100
2019-01-03T02:22:06.149Z,100
2019-01-03T02:23:08.297Z,100
2019-01-03T02:24:10.424Z,100
2019-01-03T02:25:12.546Z,100
2019-01-03T02:26:14.666Z,100
2019-01-03T02:27:16.809Z,100
2019-01-03T02:28:18.947Z,100
2019-01-03T02:29:21.084Z,100
2019-01-03T02:30:23.241Z,100
2019-01-03T02:31:25.661Z,100
2019-01-03T02:32:27.785Z,100
2019-01-03T02:33:30.177Z,100
2019-01-03T02:34:32.305Z,100
2019-01-03T02:35:34.433Z,100
2019-01-03T02:36:36.851Z,100
2019-01-03T02:37:39.331Z,100
2019-01-03T02:38:41.454Z,100
2019-01-03T02:39:43.592Z,100
2019-01-03T02:40:45.723Z,100
2019-01-03T02:41:47.859Z,100
2019-01-03T02:42:50.329Z,100
2019-01-03T02:43:52.450Z,100
2019-01-03T02:44:54.586Z,100
2019-01-03T02:45:57.024Z,100
2019-01-03T02:46:59.187Z,100
2019-01-03T02:48:01.325Z,100
2019-01-03T02:49:04.138Z,100
2019-01-03T02:50:06.277Z,100
2019-01-03T02:51:08.705Z,100
2019-01-03T02:52:10.841Z,100
2019-01-03T02:53:12.962Z,100
2019-01-03T02:54:15.472Z,100
2019-01-03T02:55:17.593Z,100
2019-01-03T02:56:19.726Z,100
2019-01-03T02:57:21.868Z,100
2019-01-03T02:58:24.680Z,100
2019-01-03T02:59:26.839Z,100
2019-01-03T03:00:29.004Z,100
2019-01-03T03:01:31.526Z,100
2019-01-03T03:02:33.977Z,100
2019-01-03T03:03:36.109Z,100
2019-01-03T03:04:38.230Z,100
2019-01-03T03:05:40.351Z,100
2019-01-03T03:06:42.485Z,100
2019-01-03T03:07:45.288Z,100
2019-01-03T03:08:47.434Z,100
2019-01-03T03:09:49.557Z,100
2019-01-03T03:10:51.665Z,100
2019-01-03T03:11:54.082Z,100
2019-01-03T03:12:56.214Z,100
2019-01-03T03:13:58.633Z,100
2019-01-03T03:15:00.832Z,100
2019-01-03T03:16:02.993Z,100
2019-01-03T03:17:05.138Z,100
2019-01-03T03:18:07.274Z,100
2019-01-03T03:19:09.413Z,100
2019-01-03T03:20:11.540Z,100
2019-01-03T03:21:13.689Z,100
2019-01-03T03:22:15.820Z,100
2019-01-03T03:23:17.960Z,100
2019-01-03T03:24:20.086Z,100
2019-01-03T03:25:22.542Z,100
2019-01-03T03:26:24.678Z,100
2019-01-03T03:27:26.822Z,100
2019-01-03T03:28:28.966Z,100
2019-01-03T03:29:31.070Z,100
2019-01-03T03:30:33.226Z,100
2019-01-03T03:31:36.190Z,100
2019-01-03T03:32:38.792Z,100
2019-01-03T03:33:41.218Z,100
2019-01-03T03:34:44.129Z,100
2019-01-03T03:35:46.560Z,100
2019-01-03T03:36:48.697Z,100
2019-01-03T03:37:50.826Z,100
2019-01-03T03:38:52.959Z,100
2019-01-03T03:39:55.076Z,100
2019-01-03T03:40:57.482Z,100
2019-01-03T03:41:59.615Z,100
2019-01-03T03:43:02.026Z,100
2019-01-03T03:44:04.500Z,100
2019-01-03T03:45:06.661Z,100
2019-01-03T03:46:09.211Z,100
2019-01-03T03:47:11.355Z,100
2019-01-03T03:48:13.900Z,100
2019-01-03T03:49:16.041Z,100
2019-01-03T03:50:18.463Z,100
2019-01-03T03:51:20.602Z,100
2019-01-03T03:52:22.714Z,100
2019-01-03T03:53:24.845Z,100
2019-01-03T03:54:26.990Z,100
2019-01-03T03:55:29.403Z,100
2019-01-03T03:56:31.561Z,100
2019-01-03T03:57:33.681Z,100
2019-01-03T03:58:35.823Z,100
2019-01-03T03:59:37.974Z,100
2019-01-03T04:00:40.117Z,100
2019-01-03T04:01:42.265Z,100
2019-01-03T04:02:44.416Z,100
2019-01-03T04:03:46.546Z,100
2019-01-03T04:04:48.673Z,100
2019-01-03T04:05:50.825Z,100
2019-01-03T04:06:52.928Z,100
2019-01-03T04:07:55.330Z,100
2019-01-03T04:08:57.751Z,100
2019-01-03T04:09:59.902Z,100
2019-01-03T04:11:02.500Z,100
2019-01-03T04:12:04.647Z,100
2019-01-03T04:13:06.805Z,100
2019-01-03T04:14:09.228Z,100
2019-01-03T04:15:11.352Z,100
2019-01-03T04:16:13.493Z,100
2019-01-03T04:17:16.071Z,100
2019-01-03T04:18:18.199Z,100
2019-01-03T04:19:20.583Z,100
2019-01-03T04:20:22.973Z,100
2019-01-03T04:21:25.119Z,100
2019-01-03T04:22:27.651Z,100
2019-01-03T04:23:29.791Z,100
2019-01-03T04:24:31.908Z,100
2019-01-03T04:25:34.032Z,100
2019-01-03T04:26:36.171Z,100
2019-01-03T04:27:38.588Z,100
2019-01-03T04:28:40.995Z,100
2019-01-03T04:29:43.412Z,100
2019-01-03T04:30:46.214Z,100
2019-01-03T04:31:48.347Z,100
2019-01-03T04:32:50.484Z,100
2019-01-03T04:33:52.915Z,100
2019-01-03T04:34:55.072Z,100
2019-01-03T04:35:57.211Z,100
2019-01-03T04:36:59.993Z,100
2019-01-03T04:38:02.140Z,100
2019-01-03T04:39:04.654Z,100
2019-01-03T04:40:06.814Z,100
2019-01-03T04:41:08.961Z,100
2019-01-03T04:42:11.145Z,100
2019-01-03T04:43:13.279Z,100
2019-01-03T04:44:15.702Z,100
2019-01-03T04:45:18.113Z,100
2019-01-03T04:46:20.239Z,100
2019-01-03T04:47:22.413Z,100
2019-01-03T04:48:24.536Z,100
2019-01-03T04:49:26.710Z,100
2019-01-03T04:50:28.860Z,100
2019-01-03T04:51:31.009Z,100
2019-01-03T04:52:33.142Z,100
2019-01-03T04:53:35.660Z,100
2019-01-03T04:54:38.791Z,100
2019-01-03T04:55:40.910Z,100
2019-01-03T04:56:43.045Z,100
2019-01-03T04:57:45.169Z,100
2019-01-03T04:58:47.322Z,100
2019-01-03T04:59:49.731Z,100
2019-01-03T05:00:52.312Z,100
2019-01-03T05:01:54.456Z,100
2019-01-03T05:02:56.598Z,100
2019-01-03T05:03:58.729Z,100
2019-01-03T05:05:00.880Z,100
2019-01-03T05:06:03.326Z,100
2019-01-03T05:07:05.462Z,100
2019-01-03T05:08:07.900Z,100
2019-01-03T05:09:10.044Z,100
2019-01-03T05:10:12.160Z,100
2019-01-03T05:11:14.319Z,100
2019-01-03T05:12:16.724Z,100
2019-01-03T05:13:18.871Z,100
2019-01-03T05:14:21.000Z,100
2019-01-03T05:15:23.450Z,100
2019-01-03T05:16:25.578Z,100
2019-01-03T05:17:27.776Z,100
2019-01-03T05:18:29.913Z,100
2019-01-03T05:19:33.765Z,100
2019-01-03T05:20:36.261Z,100
2019-01-03T05:21:38.409Z,100
2019-01-03T05:22:40.808Z,100
2019-01-03T05:23:42.938Z,100
2019-01-03T05:24:45.088Z,100
2019-01-03T05:25:47.212Z,100
2019-01-03T05:26:49.387Z,100
2019-01-03T05:27:51.504Z,100
2019-01-03T05:28:53.638Z,100
2019-01-03T05:29:55.786Z,100
2019-01-03T05:30:57.912Z,100
2019-01-03T05:32:00.046Z,100
2019-01-03T05:33:02.190Z,100
2019-01-03T05:34:04.318Z,100
2019-01-03T05:35:06.481Z,100
2019-01-03T05:36:09.006Z,100
2019-01-03T05:37:11.164Z,100
2019-01-03T05:38:13.305Z,100
2019-01-03T05:39:15.737Z,100
2019-01-03T05:40:17.899Z,100
2019-01-03T05:41:20.324Z,100
2019-01-03T05:42:22.483Z,100
2019-01-03T05:43:24.871Z,100
2019-01-03T05:44:27.022Z,100
2019-01-03T05:45:29.461Z,100
2019-01-03T05:46:31.623Z,100
2019-01-03T05:47:34.045Z,100
2019-01-03T05:48:36.467Z,100
2019-01-03T05:49:38.611Z,100
2019-01-03T05:50:40.747Z,100
2019-01-03T05:51:42.878Z,100
2019-01-03T05:52:45.002Z,100
2019-01-03T05:53:47.502Z,100
2019-01-03T05:54:49.631Z,100
2019-01-03T05:55:51.792Z,100
2019-01-03T05:56:53.928Z,100
2019-01-03T05:57:56.074Z,100
2019-01-03T05:58:58.208Z,100
2019-01-03T06:00:00.699Z,100
2019-01-03T06:01:03.132Z,100
2019-01-03T06:02:05.338Z,100
2019-01-03T06:03:07.476Z,100
2019-01-03T06:04:09.884Z,100
2019-01-03T06:05:12.011Z,100
2019-01-03T06:06:14.416Z,100
2019-01-03T06:07:16.552Z,100
2019-01-03T06:08:18.663Z,100
2019-01-03T06:09:20.779Z,100
2019-01-03T06:10:22.903Z,100
2019-01-03T06:11:25.423Z,100
2019-01-03T06:12:27.830Z,100
2019-01-03T06:13:30.261Z,100
2019-01-03T06:14:32.723Z,100
2019-01-03T06:15:35.149Z,100
2019-01-03T06:16:37.297Z,100
2019-01-03T06:17:39.718Z,100
2019-01-03T06:18:41.841Z,100
2019-01-03T06:19:44.258Z,100
2019-01-03T06:20:46.400Z,100
2019-01-03T06:21:48.545Z,100
2019-01-03T06:22:50.952Z,100
2019-01-03T06:23:53.093Z,100
2019-01-03T06:24:55.223Z,100
2019-01-03T06:25:58.120Z,100
2019-01-03T06:27:00.251Z,100
2019-01-03T06:28:02.402Z,100
2019-01-03T06:29:04.523Z,100
2019-01-03T06:30:06.669Z,100
2019-01-03T06:31:08.794Z,100
2019-01-03T06:32:10.923Z,100
2019-01-03T06:33:13.048Z,100
2019-01-03T06:34:15.453Z,100
2019-01-03T06:35:17.608Z,100
2019-01-03T06:36:20.329Z,100
2019-01-03T06:37:22.488Z,100
2019-01-03T06:38:24.639Z,100
2019-01-03T06:39:26.872Z,100
2019-01-03T06:40:29.035Z,100
2019-01-03T06:41:31.575Z,100
2019-01-03T06:42:33.696Z,100
2019-01-03T06:43:35.878Z,100
2019-01-03T06:44:38.006Z,100
2019-01-03T06:45:40.136Z,100
2019-01-03T06:46:42.265Z,100
2019-01-03T06:47:44.415Z,100
2019-01-03T06:48:46.528Z,100
2019-01-03T06:49:48.653Z,100
2019-01-03T06:50:50.800Z,100
2019-01-03T06:51:52.905Z,100
2019-01-03T06:52:55.030Z,100
2019-01-03T06:53:57.439Z,100
2019-01-03T06:54:59.864Z,100
2019-01-03T06:56:02.028Z,100
2019-01-03T06:57:04.172Z,100
2019-01-03T06:58:06.311Z,100
2019-01-03T06:59:08.463Z,100
2019-01-03T07:00:10.598Z,100
2019-01-03T07:01:12.722Z,100
2019-01-03T07:02:15.145Z,100
2019-01-03T07:03:17.285Z,100
2019-01-03T07:04:19.421Z,100
2019-01-03T07:05:21.558Z,100
2019-01-03T07:06:23.675Z,100
2019-01-03T07:07:25.809Z,100
2019-01-03T07:08:27.974Z,100
2019-01-03T07:09:30.105Z,100
2019-01-03T07:10:32.239Z,100
2019-01-03T07:11:34.365Z,100
2019-01-03T07:12:36.487Z,100
2019-01-03T07:13:38.581Z,100
2019-01-03T07:14:40.712Z,100
2019-01-03T07:15:42.819Z,99
2019-01-03T07:16:44.942Z,99
2019-01-03T07:17:47.088Z,99
2019-01-03T07:18:49.208Z,100
2019-01-03T07:19:51.339Z,100
2019-01-03T07:20:53.479Z,99
2019-01-03T07:21:55.593Z,100
2019-01-03T07:22:57.967Z,100
2019-01-03T07:24:00.113Z,100
2019-01-03T07:25:02.225Z,100
2019-01-03T07:26:04.347Z,100
2019-01-03T07:27:06.463Z,100
2019-01-03T07:28:08.571Z,99
2019-01-03T07:29:10.683Z,98
2019-01-03T07:30:12.833Z,98
2019-01-03T07:31:14.941Z,98
2019-01-03T07:32:17.372Z,98
2019-01-03T07:33:19.499Z,99
2019-01-03T07:34:21.928Z,98
2019-01-03T07:35:24.069Z,98
2019-01-03T07:36:26.200Z,98
2019-01-03T07:37:28.349Z,98
2019-01-03T07:38:30.504Z,97
2019-01-03T07:39:32.641Z,97
2019-01-03T07:40:34.765Z,97
2019-01-03T07:41:36.895Z,97
2019-01-03T07:42:39.054Z,98
2019-01-03T07:43:41.185Z,98
2019-01-03T07:44:43.592Z,98
2019-01-03T07:45:45.712Z,97
2019-01-03T07:46:47.836Z,97
2019-01-03T07:47:49.944Z,98
2019-01-03T07:48:52.071Z,98
2019-01-03T07:49:54.203Z,98
2019-01-03T07:50:56.320Z,98
2019-01-03T07:51:58.444Z,98
2019-01-03T07:53:00.559Z,98
2019-01-03T07:54:02.687Z,98
2019-01-03T07:55:04.822Z,98
2019-01-03T07:56:07.016Z,98
2019-01-03T07:57:09.178Z,98
2019-01-03T07:58:11.280Z,98
2019-01-03T07:59:13.683Z,98
2019-01-03T08:00:15.815Z,98
2019-01-03T08:01:18.202Z,98
2019-01-03T08:02:20.316Z,98
2019-01-03T08:03:22.456Z,98
2019-01-03T08:04:24.581Z,98
2019-01-03T08:05:26.716Z,98
2019-01-03T08:06:28.890Z,98
2019-01-03T08:07:31.037Z,98
2019-01-03T08:08:33.162Z,98
2019-01-03T08:09:35.305Z,98
2019-01-03T08:10:37.435Z,98
2019-01-03T08:11:39.551Z,99
2019-01-03T08:12:41.667Z,98
2019-01-03T08:13:46.139Z,98
2019-01-03T08:14:48.667Z,98
2019-01-03T08:15:50.815Z,97
2019-01-03T08:16:52.941Z,97
2019-01-03T08:17:55.304Z,97
2019-01-03T08:18:57.440Z,97
2019-01-03T08:19:59.547Z,97
2019-01-03T08:21:01.729Z,96
2019-01-03T08:22:04.248Z,96
2019-01-03T08:23:06.385Z,95
2019-01-03T08:24:08.496Z,96
2019-01-03T08:25:10.638Z,95
2019-01-03T08:26:12.836Z,95
2019-01-03T08:27:14.961Z,95
2019-01-03T08:28:17.094Z,94
2019-01-03T08:29:19.218Z,94
2019-01-03T08:30:21.351Z,95
2019-01-03T08:31:23.763Z,95
2019-01-03T08:32:25.896Z,95
2019-01-03T08:33:28.055Z,96
2019-01-03T08:34:30.183Z,96
2019-01-03T08:35:32.719Z,96
2019-01-03T08:36:34.869Z,95
2019-01-03T08:37:37.386Z,95
2019-01-03T08:38:39.495Z,94
2019-01-03T08:39:46.457Z,94
2019-01-03T08:41:21.707Z,94
2019-01-03T08:42:29.965Z,94
2019-01-03T08:43:41.607Z,95
2019-01-03T08:44:47.848Z,95
2019-01-03T08:45:56.645Z,94
2019-01-03T08:47:10.298Z,94
2019-01-03T08:48:14.108Z,93
2019-01-03T08:49:16.241Z,93
2019-01-03T08:50:18.385Z,93
2019-01-03T08:51:20.509Z,93
2019-01-03T08:52:23.038Z,93
2019-01-03T08:53:31.202Z,93
2019-01-03T08:54:39.970Z,93
2019-01-03T08:55:50.248Z,93
2019-01-03T08:56:57.096Z,93
2019-01-03T08:58:09.966Z,92
2019-01-03T08:59:31.010Z,92
2019-01-03T09:00:36.322Z,92
2019-01-03T09:01:38.458Z,91
2019-01-03T09:02:40.597Z,91
2019-01-03T09:03:42.754Z,91
2019-01-03T09:04:44.878Z,91
2019-01-03T09:05:47.010Z,92
2019-01-03T09:06:49.880Z,92
2019-01-03T09:07:52.313Z,92
2019-01-03T09:08:54.451Z,92
2019-01-03T09:09:56.571Z,92
2019-01-03T09:10:59.011Z,93
2019-01-03T09:12:01.159Z,93
2019-01-03T09:13:03.328Z,91
2019-01-03T09:14:05.501Z,91
2019-01-03T09:15:07.663Z,91
2019-01-03T09:16:10.086Z,91
2019-01-03T09:17:12.524Z,91
2019-01-03T09:18:15.486Z,90
2019-01-03T09:19:17.923Z,90
2019-01-03T09:20:20.383Z,88
2019-01-03T09:21:22.805Z,86
2019-01-03T09:22:24.960Z,86
2019-01-03T09:23:27.111Z,86
2019-01-03T09:24:29.258Z,85
2019-01-03T09:25:31.467Z,84
2019-01-03T09:26:33.900Z,80
2019-01-03T09:27:36.029Z,81
2019-01-03T09:28:38.181Z,79
2019-01-03T09:29:40.300Z,78
2019-01-03T09:30:42.413Z,78
2019-01-03T09:31:44.844Z,77
2019-01-03T09:32:47.292Z,77
2019-01-03T09:33:49.462Z,77
2019-01-03T09:34:51.609Z,79
2019-01-03T09:35:53.747Z,79
2019-01-03T09:36:55.894Z,78
2019-01-03T09:37:58.032Z,77
2019-01-03T09:39:00.175Z,76
2019-01-03T09:40:02.613Z,77
2019-01-03T09:41:05.048Z,75
2019-01-03T09:42:07.202Z,76
2019-01-03T09:43:09.377Z,77
2019-01-03T09:44:11.521Z,74
2019-01-03T09:45:14.048Z,73
2019-01-03T09:46:16.190Z,72
2019-01-03T09:47:18.653Z,71
2019-01-03T09:48:20.767Z,71
2019-01-03T09:49:23.199Z,71
2019-01-03T09:50:25.365Z,73
2019-01-03T09:51:28.797Z,72
2019-01-03T09:52:30.973Z,72
2019-01-03T09:53:33.124Z,72
2019-01-03T09:54:35.675Z,71
2019-01-03T09:55:37.820Z,71
2019-01-03T09:56:39.982Z,72
2019-01-03T09:57:42.120Z,70
2019-01-03T09:58:44.258Z,69
2019-01-03T09:59:46.404Z,71
2019-01-03T10:00:48.822Z,70
2019-01-03T10:01:51.276Z,70
2019-01-03T10:02:53.447Z,70
2019-01-03T10:03:55.599Z,72
2019-01-03T10:04:57.767Z,70
2019-01-03T10:05:59.931Z,70
2019-01-03T10:07:02.092Z,68
2019-01-03T10:08:04.614Z,69
2019-01-03T10:09:06.758Z,69
2019-01-03T10:10:08.906Z,69
2019-01-03T10:11:11.043Z,68
2019-01-03T10:12:13.510Z,69
2019-01-03T10:13:15.682Z,70
2019-01-03T10:14:17.847Z,70
2019-01-03T10:15:19.983Z,70
2019-01-03T10:16:22.125Z,69
2019-01-03T10:17:24.546Z,67
2019-01-03T10:18:26.708Z,67
2019-01-03T10:19:29.137Z,66
2019-01-03T10:20:31.551Z,68
2019-01-03T10:21:33.748Z,68
2019-01-03T10:22:35.912Z,68
2019-01-03T10:23:38.061Z,66
2019-01-03T10:24:40.625Z,68
2019-01-03T10:25:42.801Z,69
2019-01-03T10:26:45.329Z,67
2019-01-03T10:27:48.269Z,65
2019-01-03T10:28:50.419Z,64
2019-01-03T10:29:52.579Z,66
2019-01-03T10:30:54.742Z,65
2019-01-03T10:31:56.916Z,65
2019-01-03T10:32:59.186Z,66
2019-01-03T10:34:01.316Z,65
2019-01-03T10:35:03.454Z,66
2019-01-03T10:36:05.603Z,65
2019-01-03T10:37:07.742Z,66
2019-01-03T10:38:10.171Z,68
2019-01-03T10:39:12.348Z,65
2019-01-03T10:40:14.511Z,65
2019-01-03T10:41:17.511Z,65
2019-01-03T10:42:20.130Z,65
2019-01-03T10:43:22.321Z,64
2019-01-03T10:44:24.554Z,64
2019-01-03T10:45:26.730Z,64
2019-01-03T10:46:29.143Z,64
2019-01-03T10:47:31.302Z,64
2019-01-03T10:48:33.458Z,64
2019-01-03T10:49:35.619Z,63
2019-01-03T10:50:37.807Z,64
2019-01-03T10:51:39.993Z,65
2019-01-03T10:52:42.171Z,65
2019-01-03T10:53:44.337Z,64
2019-01-03T10:54:46.487Z,65
2019-01-03T10:55:48.652Z,66
2019-01-03T10:56:50.831Z,65
2019-01-03T10:57:52.968Z,66
2019-01-03T10:58:55.121Z,64
2019-01-03T10:59:57.260Z,63
2019-01-03T11:00:59.545Z,64
2019-01-03T11:02:01.750Z,65
2019-01-03T11:03:04.189Z,65
2019-01-03T11:04:06.560Z,66
2019-01-03T11:05:08.707Z,65
2019-01-03T11:06:10.841Z,66
2019-01-03T11:07:12.990Z,66
2019-01-03T11:08:15.139Z,64
2019-01-03T11:09:17.557Z,67
2019-01-03T11:10:19.731Z,67
2019-01-03T11:11:21.955Z,67
2019-01-03T11:12:24.078Z,68
2019-01-03T11:13:26.274Z,69
2019-01-03T11:14:28.398Z,69
2019-01-03T11:15:30.567Z,70
2019-01-03T11:16:32.720Z,69
2019-01-03T11:17:34.880Z,69
2019-01-03T11:18:37.073Z,68
2019-01-03T11:19:39.556Z,67
2019-01-03T11:20:41.746Z,69
2019-01-03T11:21:43.913Z,68
2019-01-03T11:22:46.082Z,68
2019-01-03T11:23:48.217Z,68
2019-01-03T11:24:50.707Z,67
2019-01-03T11:25:52.882Z,68
2019-01-03T11:26:55.020Z,68
2019-01-03T11:27:57.276Z,69
2019-01-03T11:28:59.466Z,70
2019-01-03T11:30:02.032Z,69
2019-01-03T11:31:04.198Z,68
2019-01-03T11:32:06.376Z,69
2019-01-03T11:33:08.514Z,69
2019-01-03T11:34:10.688Z,68
2019-01-03T11:35:12.857Z,69
2019-01-03T11:36:15.012Z,69
2019-01-03T11:37:17.282Z,69
2019-01-03T11:38:19.929Z,69
2019-01-03T11:39:22.966Z,68
2019-01-03T11:40:25.158Z,69
2019-01-03T11:41:27.469Z,69
2019-01-03T11:42:29.651Z,69
2019-01-03T11:43:32.484Z,68
2019-01-03T11:44:35.359Z,66
2019-01-03T11:45:37.960Z,68
2019-01-03T11:46:40.510Z,67
2019-01-03T11:47:43.544Z,67
2019-01-03T11:48:46.217Z,67
2019-01-03T11:49:48.949Z,67
2019-01-03T11:50:52.203Z,67
2019-01-03T11:51:54.682Z,66
2019-01-03T11:52:57.143Z,67
2019-01-03T11:54:00.148Z,68
2019-01-03T11:55:03.630Z,68
2019-01-03T11:56:05.907Z,68
2019-01-03T11:57:09.440Z,68
2019-01-03T11:58:13.078Z,67
2019-01-03T11:59:15.910Z,68
2019-01-03T12:00:19.701Z,67
2019-01-03T12:01:24.341Z,68
2019-01-03T12:02:27.673Z,69
2019-01-03T12:03:30.330Z,68
2019-01-03T12:04:32.645Z,69
2019-01-03T12:05:34.824Z,68
2019-01-03T12:06:37.008Z,68
2019-01-03T12:07:39.340Z,68
2019-01-03T12:08:41.584Z,69
2019-01-03T12:09:44.438Z,68
2019-01-03T12:10:46.659Z,70
2019-01-03T12:11:48.881Z,69
2019-01-03T12:12:51.051Z,71
2019-01-03T12:13:54.904Z,70
2019-01-03T12:14:57.066Z,70
2019-01-03T12:15:59.312Z,71
2019-01-03T12:17:01.497Z,71
2019-01-03T12:18:03.676Z,73
2019-01-03T12:19:05.821Z,73
2019-01-03T12:20:09.281Z,73
2019-01-03T12:21:11.458Z,73
2019-01-03T12:22:13.610Z,73
2019-01-03T12:23:15.779Z,73
2019-01-03T12:24:17.958Z,73
2019-01-03T12:25:20.169Z,75
2019-01-03T12:26:22.341Z,75
2019-01-03T12:27:24.580Z,75
2019-01-03T12:28:26.741Z,74
2019-01-03T12:29:28.970Z,74
2019-01-03T12:30:31.418Z,76
2019-01-03T12:31:33.919Z,76
2019-01-03T12:32:36.086Z,77
2019-01-03T12:33:38.655Z,77
2019-01-03T12:34:40.899Z,76
2019-01-03T12:35:43.056Z,77
2019-01-03T12:36:45.269Z,78
2019-01-03T12:37:47.814Z,78
2019-01-03T12:38:50.541Z,78
2019-01-03T12:39:52.964Z,78
2019-01-03T12:40:55.146Z,79
2019-01-03T12:41:57.345Z,78
2019-01-03T12:42:59.488Z,78
2019-01-03T12:44:01.912Z,79
2019-01-03T12:45:04.093Z,80
2019-01-03T12:46:06.241Z,80
2019-01-03T12:47:08.396Z,80
2019-01-03T12:48:10.558Z,80
2019-01-03T12:49:12.691Z,81
2019-01-03T12:50:14.839Z,81
2019-01-03T12:51:17.017Z,81
2019-01-03T12:52:19.196Z,80
2019-01-03T12:53:21.380Z,81
2019-01-03T12:54:23.536Z,81
2019-01-03T12:55:25.686Z,81
2019-01-03T12:56:28.125Z,81
2019-01-03T12:57:30.288Z,80
2019-01-03T12:58:32.431Z,81
2019-01-03T12:59:34.591Z,81
2019-01-03T13:00:36.763Z,81
2019-01-03T13:01:38.913Z,82
2019-01-03T13:02:41.089Z,82
2019-01-03T13:03:43.923Z,82
2019-01-03T13:04:46.479Z,83
2019-01-03T13:05:48.624Z,82
2019-01-03T13:06:51.139Z,82
2019-01-03T13:07:53.314Z,83
2019-01-03T13:08:55.731Z,83
2019-01-03T13:09:57.854Z,83
2019-01-03T13:11:00.021Z,83
2019-01-03T13:12:02.179Z,83
2019-01-03T13:13:04.341Z,83
2019-01-03T13:14:06.468Z,83
2019-01-03T13:15:08.914Z,83
2019-01-03T13:16:11.043Z,83
2019-01-03T13:17:13.216Z,83
2019-01-03T13:18:15.373Z,84
2019-01-03T13:19:18.080Z,84
2019-01-03T13:20:20.215Z,84
2019-01-03T13:21:22.346Z,85
2019-01-03T13:22:24.490Z,84
2019-01-03T13:23:26.614Z,84
2019-01-03T13:24:28.798Z,84
2019-01-03T13:25:30.933Z,84
2019-01-03T13:26:33.074Z,84
2019-01-03T13:27:35.236Z,85
2019-01-03T13:28:37.412Z,84
2019-01-03T13:29:39.562Z,85
2019-01-03T13:30:41.718Z,85
2019-01-03T13:31:45.180Z,85
2019-01-03T13:32:47.379Z,86
2019-01-03T13:33:49.525Z,85
2019-01-03T13:34:51.969Z,85
2019-01-03T13:35:54.421Z,85
2019-01-03T13:36:56.561Z,86
2019-01-03T13:37:58.699Z,86
2019-01-03T13:39:01.119Z,85
2019-01-03T13:40:03.254Z,86
2019-01-03T13:41:05.685Z,86
2019-01-03T13:42:07.833Z,86
2019-01-03T13:43:10.039Z,86
2019-01-03T13:44:12.465Z,86
2019-01-03T13:45:14.908Z,85
2019-01-03T13:46:17.062Z,86
2019-01-03T13:47:19.213Z,86
2019-01-03T13:48:21.374Z,86
2019-01-03T13:49:23.509Z,86
2019-01-03T13:50:26.044Z,87
2019-01-03T13:51:28.191Z,87
2019-01-03T13:52:30.336Z,87
2019-01-03T13:53:32.479Z,87
2019-01-03T13:54:34.631Z,87
2019-01-03T13:55:36.781Z,87
2019-01-03T13:56:38.907Z,87
2019-01-03T13:57:41.052Z,87
2019-01-03T13:58:43.205Z,87
2019-01-03T13:59:45.348Z,87
2019-01-03T14:00:47.486Z,87
2019-01-03T14:01:49.634Z,87
2019-01-03T14:02:51.776Z,87
2019-01-03T14:03:53.915Z,87
2019-01-03T14:04:56.356Z,87
2019-01-03T14:05:58.494Z,87
2019-01-03T14:07:00.637Z,88
2019-01-03T14:08:03.088Z,88
2019-01-03T14:09:05.221Z,88
2019-01-03T14:10:07.364Z,88
2019-01-03T14:11:09.507Z,88
2019-01-03T14:12:11.647Z,88
2019-01-03T14:13:13.772Z,88
2019-01-03T14:14:15.900Z,89
2019-01-03T14:15:18.074Z,88
2019-01-03T14:16:20.247Z,88
2019-01-03T14:17:27.663Z,89
2019-01-03T14:18:33.525Z,89
2019-01-03T14:19:37.133Z,89
2019-01-03T14:20:39.286Z,89
2019-01-03T14:21:41.437Z,89
2019-01-03T14:22:43.606Z,89
2019-01-03T14:23:45.759Z,89
2019-01-03T14:24:48.285Z,89
2019-01-03T14:25:50.430Z,89
2019-01-03T14:26:52.588Z,89
2019-01-03T14:27:54.772Z,89
2019-01-03T14:28:56.910Z,89
2019-01-03T14:29:59.065Z,90
2019-01-03T14:31:01.811Z,89
2019-01-03T14:32:03.998Z,90
2019-01-03T14:33:06.181Z,90
2019-01-03T14:34:08.707Z,90
2019-01-03T14:35:10.889Z,91
2019-01-03T14:36:13.052Z,91
2019-01-03T14:37:15.230Z,91